sensor_id;sensor_type;location;lat;lon;timestamp;P1;durP1;ratioP1;P2;durP2;ratioP2
51852;SDS011;37894;53.172;6.598;2023-06-04T00:00:41;8.23;;;4.05;;
51852;SDS011;37894;53.172;6.598;2023-06-04T00:03:07;9.02;;;4.60;;
51852;SDS011;37894;53.172;6.598;2023-06-04T00:05:33;13.18;;;5.25;;
51852;SDS011;37894;53.172;6.598;2023-06-04T00:07:59;10.38;;;4.60;;
51852;SDS011;37894;53.172;6.598;2023-06-04T00:10:25;9.65;;;4.40;;
51852;SDS011;37894;53.172;6.598;2023-06-04T00:12:50;9.48;;;4.03;;
51852;SDS011;37894;53.172;6.598;2023-06-04T00:15:16;10.00;;;5.07;;
51852;SDS011;37894;53.172;6.598;2023-06-04T00:17:42;11.02;;;4.40;;
51852;SDS011;37894;53.172;6.598;2023-06-04T00:20:08;13.13;;;4.97;;
51852;SDS011;37894;53.172;6.598;2023-06-04T00:22:35;11.50;;;4.60;;
51852;SDS011;37894;53.172;6.598;2023-06-04T00:25:01;12.23;;;4.47;;
51852;SDS011;37894;53.172;6.598;2023-06-04T00:27:27;9.93;;;5.05;;
51852;SDS011;37894;53.172;6.598;2023-06-04T00:29:52;9.88;;;4.43;;
51852;SDS011;37894;53.172;6.598;2023-06-04T00:32:18;9.55;;;4.70;;
51852;SDS011;37894;53.172;6.598;2023-06-04T00:34:50;7.43;;;3.67;;
51852;SDS011;37894;53.172;6.598;2023-06-04T00:37:21;8.57;;;4.78;;
51852;SDS011;37894;53.172;6.598;2023-06-04T00:39:47;8.85;;;4.22;;
51852;SDS011;37894;53.172;6.598;2023-06-04T00:42:13;10.65;;;4.72;;
51852;SDS011;37894;53.172;6.598;2023-06-04T00:44:39;9.45;;;5.00;;
51852;SDS011;37894;53.172;6.598;2023-06-04T00:47:10;10.68;;;4.78;;
51852;SDS011;37894;53.172;6.598;2023-06-04T00:49:39;15.82;;;5.28;;
51852;SDS011;37894;53.172;6.598;2023-06-04T00:52:07;9.43;;;4.20;;
51852;SDS011;37894;53.172;6.598;2023-06-04T00:54:34;7.70;;;4.07;;
51852;SDS011;37894;53.172;6.598;2023-06-04T00:57:01;12.90;;;4.70;;
51852;SDS011;37894;53.172;6.598;2023-06-04T00:59:27;9.18;;;4.05;;
51852;SDS011;37894;53.172;6.598;2023-06-04T01:02:03;13.63;;;4.07;;
51852;SDS011;37894;53.172;6.598;2023-06-04T01:05:01;9.73;;;4.55;;
51852;SDS011;37894;53.172;6.598;2023-06-04T01:07:45;13.15;;;4.47;;
51852;SDS011;37894;53.172;6.598;2023-06-04T01:10:15;8.98;;;4.85;;
51852;SDS011;37894;53.172;6.598;2023-06-04T01:12:44;12.40;;;5.22;;
51852;SDS011;37894;53.172;6.598;2023-06-04T01:15:10;10.23;;;5.05;;
51852;SDS011;37894;53.172;6.598;2023-06-04T01:17:40;9.05;;;4.65;;
51852;SDS011;37894;53.172;6.598;2023-06-04T01:22:44;8.82;;;4.93;;
51852;SDS011;37894;53.172;6.598;2023-06-04T01:25:24;10.45;;;4.68;;
51852;SDS011;37894;53.172;6.598;2023-06-04T01:28:04;11.65;;;4.82;;
51852;SDS011;37894;53.172;6.598;2023-06-04T01:30:33;14.05;;;4.65;;
51852;SDS011;37894;53.172;6.598;2023-06-04T01:33:01;9.77;;;5.03;;
51852;SDS011;37894;53.172;6.598;2023-06-04T01:35:28;14.07;;;5.70;;
51852;SDS011;37894;53.172;6.598;2023-06-04T01:37:56;12.82;;;5.50;;
51852;SDS011;37894;53.172;6.598;2023-06-04T01:40:22;13.18;;;5.13;;
51852;SDS011;37894;53.172;6.598;2023-06-04T01:42:48;9.82;;;5.65;;
51852;SDS011;37894;53.172;6.598;2023-06-04T01:45:14;11.55;;;5.28;;
51852;SDS011;37894;53.172;6.598;2023-06-04T01:47:40;16.30;;;6.50;;
51852;SDS011;37894;53.172;6.598;2023-06-04T01:50:06;14.45;;;6.78;;
51852;SDS011;37894;53.172;6.598;2023-06-04T01:52:35;14.85;;;6.10;;
51852;SDS011;37894;53.172;6.598;2023-06-04T01:55:12;11.93;;;6.47;;
51852;SDS011;37894;53.172;6.598;2023-06-04T01:57:40;16.50;;;6.85;;
51852;SDS011;37894;53.172;6.598;2023-06-04T02:00:07;15.05;;;7.78;;
51852;SDS011;37894;53.172;6.598;2023-06-04T02:02:35;15.63;;;7.03;;
51852;SDS011;37894;53.172;6.598;2023-06-04T02:05:05;14.35;;;7.07;;
51852;SDS011;37894;53.172;6.598;2023-06-04T02:07:40;15.27;;;7.53;;
51852;SDS011;37894;53.172;6.598;2023-06-04T02:12:35;14.75;;;6.57;;
51852;SDS011;37894;53.172;6.598;2023-06-04T02:15:03;14.75;;;7.43;;
51852;SDS011;37894;53.172;6.598;2023-06-04T02:17:30;13.25;;;6.82;;
51852;SDS011;37894;53.172;6.598;2023-06-04T02:20:02;10.52;;;6.35;;
51852;SDS011;37894;53.172;6.598;2023-06-04T02:22:29;14.23;;;6.85;;
51852;SDS011;37894;53.172;6.598;2023-06-04T02:24:55;16.70;;;7.18;;
51852;SDS011;37894;53.172;6.598;2023-06-04T02:27:20;16.88;;;7.43;;
51852;SDS011;37894;53.172;6.598;2023-06-04T02:29:47;20.42;;;8.30;;
51852;SDS011;37894;53.172;6.598;2023-06-04T02:32:12;14.30;;;7.72;;
51852;SDS011;37894;53.172;6.598;2023-06-04T02:34:38;14.73;;;7.75;;
51852;SDS011;37894;53.172;6.598;2023-06-04T02:37:04;14.95;;;8.15;;
51852;SDS011;37894;53.172;6.598;2023-06-04T02:39:30;18.60;;;8.68;;
51852;SDS011;37894;53.172;6.598;2023-06-04T02:41:55;20.20;;;9.77;;
51852;SDS011;37894;53.172;6.598;2023-06-04T02:44:21;11.40;;;7.30;;
51852;SDS011;37894;53.172;6.598;2023-06-04T02:46:47;13.02;;;7.32;;
51852;SDS011;37894;53.172;6.598;2023-06-04T02:49:12;16.80;;;8.30;;
51852;SDS011;37894;53.172;6.598;2023-06-04T02:51:39;13.48;;;7.40;;
51852;SDS011;37894;53.172;6.598;2023-06-04T02:54:05;13.35;;;7.05;;
51852;SDS011;37894;53.172;6.598;2023-06-04T02:56:31;20.30;;;8.60;;
51852;SDS011;37894;53.172;6.598;2023-06-04T02:58:57;15.18;;;7.90;;
51852;SDS011;37894;53.172;6.598;2023-06-04T03:01:23;17.35;;;8.13;;
51852;SDS011;37894;53.172;6.598;2023-06-04T03:03:51;14.48;;;8.25;;
51852;SDS011;37894;53.172;6.598;2023-06-04T03:06:18;18.75;;;10.05;;
51852;SDS011;37894;53.172;6.598;2023-06-04T03:08:46;20.33;;;11.55;;
51852;SDS011;37894;53.172;6.598;2023-06-04T03:11:15;19.17;;;12.30;;
51852;SDS011;37894;53.172;6.598;2023-06-04T03:13:41;23.33;;;11.85;;
51852;SDS011;37894;53.172;6.598;2023-06-04T03:16:07;16.65;;;10.18;;
51852;SDS011;37894;53.172;6.598;2023-06-04T03:18:39;22.98;;;12.30;;
51852;SDS011;37894;53.172;6.598;2023-06-04T03:21:05;23.02;;;12.90;;
51852;SDS011;37894;53.172;6.598;2023-06-04T03:23:32;21.50;;;11.90;;
51852;SDS011;37894;53.172;6.598;2023-06-04T03:26:00;19.50;;;11.85;;
51852;SDS011;37894;53.172;6.598;2023-06-04T03:28:26;16.90;;;11.63;;
51852;SDS011;37894;53.172;6.598;2023-06-04T03:30:52;23.10;;;11.15;;
51852;SDS011;37894;53.172;6.598;2023-06-04T03:33:18;24.85;;;14.25;;
51852;SDS011;37894;53.172;6.598;2023-06-04T03:35:43;19.73;;;12.15;;
51852;SDS011;37894;53.172;6.598;2023-06-04T03:38:10;21.30;;;12.30;;
51852;SDS011;37894;53.172;6.598;2023-06-04T03:40:36;22.25;;;13.07;;
51852;SDS011;37894;53.172;6.598;2023-06-04T03:43:02;21.98;;;14.02;;
51852;SDS011;37894;53.172;6.598;2023-06-04T03:45:29;22.92;;;12.25;;
51852;SDS011;37894;53.172;6.598;2023-06-04T03:47:55;22.23;;;10.95;;
51852;SDS011;37894;53.172;6.598;2023-06-04T03:50:21;23.80;;;11.63;;
51852;SDS011;37894;53.172;6.598;2023-06-04T03:52:47;19.35;;;12.30;;
51852;SDS011;37894;53.172;6.598;2023-06-04T03:55:14;20.05;;;11.75;;
51852;SDS011;37894;53.172;6.598;2023-06-04T03:57:40;18.75;;;10.82;;
51852;SDS011;37894;53.172;6.598;2023-06-04T04:00:06;20.05;;;11.50;;
51852;SDS011;37894;53.172;6.598;2023-06-04T04:02:35;21.27;;;11.55;;
51852;SDS011;37894;53.172;6.598;2023-06-04T04:05:01;22.42;;;12.60;;
51852;SDS011;37894;53.172;6.598;2023-06-04T04:07:28;19.27;;;11.35;;
51852;SDS011;37894;53.172;6.598;2023-06-04T04:09:53;18.10;;;10.63;;
51852;SDS011;37894;53.172;6.598;2023-06-04T04:12:19;17.13;;;9.73;;
51852;SDS011;37894;53.172;6.598;2023-06-04T04:14:45;21.40;;;10.57;;
51852;SDS011;37894;53.172;6.598;2023-06-04T04:17:12;18.73;;;10.43;;
51852;SDS011;37894;53.172;6.598;2023-06-04T04:19:41;20.08;;;10.40;;
51852;SDS011;37894;53.172;6.598;2023-06-04T04:22:07;21.20;;;10.63;;
51852;SDS011;37894;53.172;6.598;2023-06-04T04:24:34;21.80;;;9.27;;
51852;SDS011;37894;53.172;6.598;2023-06-04T04:27:02;16.20;;;9.07;;
51852;SDS011;37894;53.172;6.598;2023-06-04T04:29:29;16.10;;;10.15;;
51852;SDS011;37894;53.172;6.598;2023-06-04T04:31:58;16.80;;;9.60;;
51852;SDS011;37894;53.172;6.598;2023-06-04T04:34:35;21.52;;;10.57;;
51852;SDS011;37894;53.172;6.598;2023-06-04T04:37:02;16.17;;;8.70;;
51852;SDS011;37894;53.172;6.598;2023-06-04T04:39:28;17.25;;;8.90;;
51852;SDS011;37894;53.172;6.598;2023-06-04T04:41:54;15.90;;;9.73;;
51852;SDS011;37894;53.172;6.598;2023-06-04T04:44:20;17.92;;;9.73;;
51852;SDS011;37894;53.172;6.598;2023-06-04T04:46:47;18.00;;;9.30;;
51852;SDS011;37894;53.172;6.598;2023-06-04T04:49:13;17.20;;;9.45;;
51852;SDS011;37894;53.172;6.598;2023-06-04T04:51:39;22.63;;;10.10;;
51852;SDS011;37894;53.172;6.598;2023-06-04T04:54:05;19.63;;;11.27;;
51852;SDS011;37894;53.172;6.598;2023-06-04T04:56:33;25.23;;;10.73;;
51852;SDS011;37894;53.172;6.598;2023-06-04T04:59:02;19.42;;;9.75;;
51852;SDS011;37894;53.172;6.598;2023-06-04T05:01:27;21.50;;;11.13;;
51852;SDS011;37894;53.172;6.598;2023-06-04T05:03:53;16.35;;;9.68;;
51852;SDS011;37894;53.172;6.598;2023-06-04T05:06:19;20.30;;;10.35;;
51852;SDS011;37894;53.172;6.598;2023-06-04T05:08:46;21.30;;;9.50;;
51852;SDS011;37894;53.172;6.598;2023-06-04T05:11:11;18.27;;;10.00;;
51852;SDS011;37894;53.172;6.598;2023-06-04T05:13:37;20.30;;;9.50;;
51852;SDS011;37894;53.172;6.598;2023-06-04T05:16:03;13.77;;;8.55;;
51852;SDS011;37894;53.172;6.598;2023-06-04T05:18:32;19.80;;;8.68;;
51852;SDS011;37894;53.172;6.598;2023-06-04T05:20:59;17.70;;;8.52;;
51852;SDS011;37894;53.172;6.598;2023-06-04T05:23:27;14.02;;;7.93;;
51852;SDS011;37894;53.172;6.598;2023-06-04T05:25:55;17.23;;;8.35;;
51852;SDS011;37894;53.172;6.598;2023-06-04T05:28:21;16.10;;;7.82;;
51852;SDS011;37894;53.172;6.598;2023-06-04T05:30:50;15.45;;;7.55;;
51852;SDS011;37894;53.172;6.598;2023-06-04T05:33:17;15.18;;;7.47;;
51852;SDS011;37894;53.172;6.598;2023-06-04T05:35:46;14.75;;;8.07;;
51852;SDS011;37894;53.172;6.598;2023-06-04T05:38:13;13.57;;;6.75;;
51852;SDS011;37894;53.172;6.598;2023-06-04T05:40:43;16.15;;;6.68;;
51852;SDS011;37894;53.172;6.598;2023-06-04T05:43:10;13.18;;;6.97;;
51852;SDS011;37894;53.172;6.598;2023-06-04T05:45:36;14.27;;;6.78;;
51852;SDS011;37894;53.172;6.598;2023-06-04T05:48:02;14.13;;;6.38;;
51852;SDS011;37894;53.172;6.598;2023-06-04T05:50:28;13.32;;;6.68;;
51852;SDS011;37894;53.172;6.598;2023-06-04T05:52:55;15.35;;;6.38;;
51852;SDS011;37894;53.172;6.598;2023-06-04T05:55:21;18.48;;;6.57;;
51852;SDS011;37894;53.172;6.598;2023-06-04T05:57:48;13.20;;;5.75;;
51852;SDS011;37894;53.172;6.598;2023-06-04T06:00:14;10.77;;;5.85;;
51852;SDS011;37894;53.172;6.598;2023-06-04T06:02:40;9.40;;;5.45;;
51852;SDS011;37894;53.172;6.598;2023-06-04T06:05:06;14.15;;;5.25;;
51852;SDS011;37894;53.172;6.598;2023-06-04T06:07:35;11.48;;;4.95;;
51852;SDS011;37894;53.172;6.598;2023-06-04T06:10:01;9.13;;;4.40;;
51852;SDS011;37894;53.172;6.598;2023-06-04T06:12:27;11.52;;;4.72;;
51852;SDS011;37894;53.172;6.598;2023-06-04T06:14:53;12.35;;;4.63;;
51852;SDS011;37894;53.172;6.598;2023-06-04T06:17:19;13.07;;;4.80;;
51852;SDS011;37894;53.172;6.598;2023-06-04T06:19:45;11.13;;;3.63;;
51852;SDS011;37894;53.172;6.598;2023-06-04T06:22:11;13.30;;;3.92;;
51852;SDS011;37894;53.172;6.598;2023-06-04T06:24:37;10.95;;;4.15;;
51852;SDS011;37894;53.172;6.598;2023-06-04T06:27:04;10.13;;;4.03;;
51852;SDS011;37894;53.172;6.598;2023-06-04T06:29:30;9.48;;;3.80;;
51852;SDS011;37894;53.172;6.598;2023-06-04T06:31:56;11.68;;;3.85;;
51852;SDS011;37894;53.172;6.598;2023-06-04T06:34:21;9.93;;;3.53;;
51852;SDS011;37894;53.172;6.598;2023-06-04T06:36:47;9.27;;;3.53;;
51852;SDS011;37894;53.172;6.598;2023-06-04T06:39:13;7.93;;;3.60;;
51852;SDS011;37894;53.172;6.598;2023-06-04T06:41:38;10.90;;;3.40;;
51852;SDS011;37894;53.172;6.598;2023-06-04T06:44:04;9.18;;;2.58;;
51852;SDS011;37894;53.172;6.598;2023-06-04T06:46:30;8.80;;;2.60;;
51852;SDS011;37894;53.172;6.598;2023-06-04T06:48:56;7.20;;;2.30;;
51852;SDS011;37894;53.172;6.598;2023-06-04T06:51:22;5.43;;;1.80;;
51852;SDS011;37894;53.172;6.598;2023-06-04T06:53:51;7.45;;;2.38;;
51852;SDS011;37894;53.172;6.598;2023-06-04T06:56:17;8.10;;;2.80;;
51852;SDS011;37894;53.172;6.598;2023-06-04T06:58:46;6.20;;;2.25;;
51852;SDS011;37894;53.172;6.598;2023-06-04T07:01:12;5.93;;;2.15;;
51852;SDS011;37894;53.172;6.598;2023-06-04T07:03:38;4.72;;;1.65;;
51852;SDS011;37894;53.172;6.598;2023-06-04T07:06:07;4.43;;;1.92;;
51852;SDS011;37894;53.172;6.598;2023-06-04T07:08:33;4.80;;;1.80;;
51852;SDS011;37894;53.172;6.598;2023-06-04T07:10:59;4.40;;;1.70;;
51852;SDS011;37894;53.172;6.598;2023-06-04T07:13:26;3.88;;;1.88;;
51852;SDS011;37894;53.172;6.598;2023-06-04T07:15:53;10.70;;;2.17;;
51852;SDS011;37894;53.172;6.598;2023-06-04T07:18:19;4.95;;;1.85;;
51852;SDS011;37894;53.172;6.598;2023-06-04T07:20:44;5.82;;;1.92;;
51852;SDS011;37894;53.172;6.598;2023-06-04T07:23:10;5.00;;;1.88;;
51852;SDS011;37894;53.172;6.598;2023-06-04T07:25:36;4.53;;;1.75;;
51852;SDS011;37894;53.172;6.598;2023-06-04T07:28:01;3.85;;;1.70;;
51852;SDS011;37894;53.172;6.598;2023-06-04T07:30:29;4.55;;;2.00;;
51852;SDS011;37894;53.172;6.598;2023-06-04T07:32:56;6.60;;;1.85;;
51852;SDS011;37894;53.172;6.598;2023-06-04T07:35:23;4.65;;;1.88;;
51852;SDS011;37894;53.172;6.598;2023-06-04T07:37:49;6.82;;;2.40;;
51852;SDS011;37894;53.172;6.598;2023-06-04T07:40:15;4.10;;;1.50;;
51852;SDS011;37894;53.172;6.598;2023-06-04T07:42:42;3.92;;;1.52;;
51852;SDS011;37894;53.172;6.598;2023-06-04T07:45:08;5.30;;;2.13;;
51852;SDS011;37894;53.172;6.598;2023-06-04T07:47:35;2.97;;;1.65;;
51852;SDS011;37894;53.172;6.598;2023-06-04T07:50:01;4.55;;;1.70;;
51852;SDS011;37894;53.172;6.598;2023-06-04T07:52:31;2.72;;;1.42;;
51852;SDS011;37894;53.172;6.598;2023-06-04T07:54:57;7.28;;;1.85;;
51852;SDS011;37894;53.172;6.598;2023-06-04T07:57:23;7.05;;;2.90;;
51852;SDS011;37894;53.172;6.598;2023-06-04T07:59:49;7.47;;;2.00;;
51852;SDS011;37894;53.172;6.598;2023-06-04T08:02:14;5.60;;;1.70;;
51852;SDS011;37894;53.172;6.598;2023-06-04T08:04:40;6.63;;;1.88;;
51852;SDS011;37894;53.172;6.598;2023-06-04T08:07:06;4.88;;;1.90;;
51852;SDS011;37894;53.172;6.598;2023-06-04T08:09:32;6.25;;;1.77;;
51852;SDS011;37894;53.172;6.598;2023-06-04T08:11:57;4.72;;;2.10;;
51852;SDS011;37894;53.172;6.598;2023-06-04T08:14:23;5.10;;;1.45;;
51852;SDS011;37894;53.172;6.598;2023-06-04T08:16:52;3.92;;;1.67;;
51852;SDS011;37894;53.172;6.598;2023-06-04T08:19:18;4.72;;;1.98;;
51852;SDS011;37894;53.172;6.598;2023-06-04T08:21:44;7.35;;;1.52;;
51852;SDS011;37894;53.172;6.598;2023-06-04T08:24:10;6.32;;;1.67;;
51852;SDS011;37894;53.172;6.598;2023-06-04T08:26:36;5.95;;;1.42;;
51852;SDS011;37894;53.172;6.598;2023-06-04T08:29:03;6.32;;;1.63;;
51852;SDS011;37894;53.172;6.598;2023-06-04T08:31:32;5.65;;;1.70;;
51852;SDS011;37894;53.172;6.598;2023-06-04T08:33:58;4.97;;;1.60;;
51852;SDS011;37894;53.172;6.598;2023-06-04T08:36:24;5.90;;;1.85;;
51852;SDS011;37894;53.172;6.598;2023-06-04T08:38:50;4.78;;;1.48;;
51852;SDS011;37894;53.172;6.598;2023-06-04T08:43:55;5.32;;;2.03;;
51852;SDS011;37894;53.172;6.598;2023-06-04T08:46:22;5.38;;;2.00;;
51852;SDS011;37894;53.172;6.598;2023-06-04T08:48:49;8.75;;;1.98;;
51852;SDS011;37894;53.172;6.598;2023-06-04T08:51:15;5.18;;;1.63;;
51852;SDS011;37894;53.172;6.598;2023-06-04T08:53:42;6.75;;;1.80;;
51852;SDS011;37894;53.172;6.598;2023-06-04T08:56:08;6.00;;;1.70;;
51852;SDS011;37894;53.172;6.598;2023-06-04T08:58:36;4.75;;;1.60;;
51852;SDS011;37894;53.172;6.598;2023-06-04T09:01:05;3.88;;;1.60;;
51852;SDS011;37894;53.172;6.598;2023-06-04T09:03:32;8.23;;;1.80;;
51852;SDS011;37894;53.172;6.598;2023-06-04T09:05:58;3.58;;;1.58;;
51852;SDS011;37894;53.172;6.598;2023-06-04T09:08:26;6.22;;;1.80;;
51852;SDS011;37894;53.172;6.598;2023-06-04T09:10:56;6.03;;;1.60;;
51852;SDS011;37894;53.172;6.598;2023-06-04T09:13:22;4.45;;;1.58;;
51852;SDS011;37894;53.172;6.598;2023-06-04T09:16:02;4.47;;;1.52;;
51852;SDS011;37894;53.172;6.598;2023-06-04T09:18:29;4.40;;;1.38;;
51852;SDS011;37894;53.172;6.598;2023-06-04T09:23:28;8.75;;;2.25;;
51852;SDS011;37894;53.172;6.598;2023-06-04T09:25:55;3.67;;;1.67;;
51852;SDS011;37894;53.172;6.598;2023-06-04T09:28:21;3.63;;;1.40;;
51852;SDS011;37894;53.172;6.598;2023-06-04T09:30:50;3.72;;;1.52;;
51852;SDS011;37894;53.172;6.598;2023-06-04T09:33:17;3.53;;;1.42;;
51852;SDS011;37894;53.172;6.598;2023-06-04T09:35:52;5.60;;;1.63;;
51852;SDS011;37894;53.172;6.598;2023-06-04T09:38:19;4.60;;;1.38;;
51852;SDS011;37894;53.172;6.598;2023-06-04T09:40:44;5.28;;;1.60;;
51852;SDS011;37894;53.172;6.598;2023-06-04T09:43:11;3.42;;;1.48;;
51852;SDS011;37894;53.172;6.598;2023-06-04T09:45:47;3.40;;;1.75;;
51852;SDS011;37894;53.172;6.598;2023-06-04T09:48:18;6.00;;;1.65;;
51852;SDS011;37894;53.172;6.598;2023-06-04T09:50:46;4.20;;;1.50;;
51852;SDS011;37894;53.172;6.598;2023-06-04T09:53:19;3.95;;;1.48;;
51852;SDS011;37894;53.172;6.598;2023-06-04T09:55:57;4.00;;;1.65;;
51852;SDS011;37894;53.172;6.598;2023-06-04T09:58:25;4.80;;;1.35;;
51852;SDS011;37894;53.172;6.598;2023-06-04T10:00:51;6.45;;;1.67;;
51852;SDS011;37894;53.172;6.598;2023-06-04T10:03:19;4.22;;;1.65;;
51852;SDS011;37894;53.172;6.598;2023-06-04T10:05:50;9.57;;;1.60;;
51852;SDS011;37894;53.172;6.598;2023-06-04T10:08:18;5.15;;;1.90;;
51852;SDS011;37894;53.172;6.598;2023-06-04T10:10:48;4.38;;;1.42;;
51852;SDS011;37894;53.172;6.598;2023-06-04T10:13:19;7.10;;;1.60;;
51852;SDS011;37894;53.172;6.598;2023-06-04T10:15:46;5.28;;;1.30;;
51852;SDS011;37894;53.172;6.598;2023-06-04T10:18:13;11.48;;;1.50;;
51852;SDS011;37894;53.172;6.598;2023-06-04T10:20:40;6.53;;;1.60;;
51852;SDS011;37894;53.172;6.598;2023-06-04T10:23:06;4.45;;;1.55;;
51852;SDS011;37894;53.172;6.598;2023-06-04T10:25:36;4.80;;;1.63;;
51852;SDS011;37894;53.172;6.598;2023-06-04T10:28:02;5.05;;;1.38;;
51852;SDS011;37894;53.172;6.598;2023-06-04T10:30:32;2.72;;;1.25;;
51852;SDS011;37894;53.172;6.598;2023-06-04T10:32:58;3.92;;;1.50;;
51852;SDS011;37894;53.172;6.598;2023-06-04T10:35:31;5.53;;;1.80;;
51852;SDS011;37894;53.172;6.598;2023-06-04T10:38:07;3.25;;;1.50;;
51852;SDS011;37894;53.172;6.598;2023-06-04T10:40:34;3.78;;;1.65;;
51852;SDS011;37894;53.172;6.598;2023-06-04T10:43:08;2.95;;;1.00;;
51852;SDS011;37894;53.172;6.598;2023-06-04T10:45:35;4.07;;;1.70;;
51852;SDS011;37894;53.172;6.598;2023-06-04T10:48:05;3.97;;;1.30;;
51852;SDS011;37894;53.172;6.598;2023-06-04T10:50:32;3.05;;;1.20;;
51852;SDS011;37894;53.172;6.598;2023-06-04T10:52:59;4.43;;;1.30;;
51852;SDS011;37894;53.172;6.598;2023-06-04T10:55:28;3.85;;;1.58;;
51852;SDS011;37894;53.172;6.598;2023-06-04T10:57:55;4.28;;;1.38;;
51852;SDS011;37894;53.172;6.598;2023-06-04T11:00:21;7.15;;;1.50;;
51852;SDS011;37894;53.172;6.598;2023-06-04T11:02:53;3.75;;;1.40;;
51852;SDS011;37894;53.172;6.598;2023-06-04T11:05:22;3.15;;;1.63;;
51852;SDS011;37894;53.172;6.598;2023-06-04T11:07:59;5.07;;;1.60;;
51852;SDS011;37894;53.172;6.598;2023-06-04T11:10:30;3.28;;;1.45;;
51852;SDS011;37894;53.172;6.598;2023-06-04T11:13:07;4.00;;;1.50;;
51852;SDS011;37894;53.172;6.598;2023-06-04T11:18:08;3.40;;;1.48;;
51852;SDS011;37894;53.172;6.598;2023-06-04T11:20:38;5.47;;;1.33;;
51852;SDS011;37894;53.172;6.598;2023-06-04T11:23:04;3.90;;;1.40;;
51852;SDS011;37894;53.172;6.598;2023-06-04T11:25:31;6.45;;;1.60;;
51852;SDS011;37894;53.172;6.598;2023-06-04T11:27:58;4.32;;;1.55;;
51852;SDS011;37894;53.172;6.598;2023-06-04T11:30:25;6.30;;;1.70;;
51852;SDS011;37894;53.172;6.598;2023-06-04T11:32:59;3.67;;;1.33;;
51852;SDS011;37894;53.172;6.598;2023-06-04T11:35:28;4.47;;;1.55;;
51852;SDS011;37894;53.172;6.598;2023-06-04T11:37:55;3.78;;;1.50;;
51852;SDS011;37894;53.172;6.598;2023-06-04T11:40:22;4.82;;;1.60;;
51852;SDS011;37894;53.172;6.598;2023-06-04T11:42:48;4.57;;;1.50;;
51852;SDS011;37894;53.172;6.598;2023-06-04T11:45:15;4.75;;;1.85;;
51852;SDS011;37894;53.172;6.598;2023-06-04T11:47:56;4.18;;;1.58;;
51852;SDS011;37894;53.172;6.598;2023-06-04T11:50:22;4.43;;;1.60;;
51852;SDS011;37894;53.172;6.598;2023-06-04T11:52:52;3.17;;;1.30;;
51852;SDS011;37894;53.172;6.598;2023-06-04T11:55:18;4.85;;;1.55;;
51852;SDS011;37894;53.172;6.598;2023-06-04T11:57:47;6.18;;;2.40;;
51852;SDS011;37894;53.172;6.598;2023-06-04T12:00:15;4.35;;;1.80;;
51852;SDS011;37894;53.172;6.598;2023-06-04T12:03:15;5.00;;;1.67;;
51852;SDS011;37894;53.172;6.598;2023-06-04T12:05:34;4.78;;;1.50;;
51852;SDS011;37894;53.172;6.598;2023-06-04T12:08:04;4.70;;;1.52;;
51852;SDS011;37894;53.172;6.598;2023-06-04T12:10:39;4.43;;;1.58;;
51852;SDS011;37894;53.172;6.598;2023-06-04T12:13:06;4.03;;;1.55;;
51852;SDS011;37894;53.172;6.598;2023-06-04T12:15:32;3.55;;;1.60;;
51852;SDS011;37894;53.172;6.598;2023-06-04T12:17:58;4.85;;;1.80;;
51852;SDS011;37894;53.172;6.598;2023-06-04T12:20:31;6.35;;;1.80;;
51852;SDS011;37894;53.172;6.598;2023-06-04T12:22:58;4.95;;;1.90;;
51852;SDS011;37894;53.172;6.598;2023-06-04T12:25:24;4.03;;;1.58;;
51852;SDS011;37894;53.172;6.598;2023-06-04T12:27:51;5.38;;;1.60;;
51852;SDS011;37894;53.172;6.598;2023-06-04T12:30:17;3.10;;;1.50;;
51852;SDS011;37894;53.172;6.598;2023-06-04T12:32:42;4.70;;;1.52;;
51852;SDS011;37894;53.172;6.598;2023-06-04T12:35:10;4.28;;;1.50;;
51852;SDS011;37894;53.172;6.598;2023-06-04T12:37:36;4.53;;;1.70;;
51852;SDS011;37894;53.172;6.598;2023-06-04T12:40:01;4.38;;;1.65;;
51852;SDS011;37894;53.172;6.598;2023-06-04T12:42:29;2.78;;;1.30;;
51852;SDS011;37894;53.172;6.598;2023-06-04T12:44:55;3.65;;;1.35;;
51852;SDS011;37894;53.172;6.598;2023-06-04T12:47:21;2.95;;;1.38;;
51852;SDS011;37894;53.172;6.598;2023-06-04T12:49:47;5.72;;;1.60;;
51852;SDS011;37894;53.172;6.598;2023-06-04T12:52:12;5.10;;;1.30;;
51852;SDS011;37894;53.172;6.598;2023-06-04T12:54:39;3.97;;;1.50;;
51852;SDS011;37894;53.172;6.598;2023-06-04T12:57:05;4.03;;;1.60;;
51852;SDS011;37894;53.172;6.598;2023-06-04T12:59:31;4.20;;;1.35;;
51852;SDS011;37894;53.172;6.598;2023-06-04T13:01:56;4.93;;;1.48;;
51852;SDS011;37894;53.172;6.598;2023-06-04T13:04:22;4.10;;;1.58;;
51852;SDS011;37894;53.172;6.598;2023-06-04T13:06:49;4.00;;;1.10;;
51852;SDS011;37894;53.172;6.598;2023-06-04T13:09:17;3.60;;;1.40;;
51852;SDS011;37894;53.172;6.598;2023-06-04T13:11:44;4.25;;;1.60;;
51852;SDS011;37894;53.172;6.598;2023-06-04T13:14:10;4.50;;;1.38;;
51852;SDS011;37894;53.172;6.598;2023-06-04T13:16:37;3.22;;;1.45;;
51852;SDS011;37894;53.172;6.598;2023-06-04T13:19:03;4.03;;;1.40;;
51852;SDS011;37894;53.172;6.598;2023-06-04T13:21:29;2.95;;;1.27;;
51852;SDS011;37894;53.172;6.598;2023-06-04T13:23:55;4.30;;;1.40;;
51852;SDS011;37894;53.172;6.598;2023-06-04T13:26:21;3.15;;;1.60;;
51852;SDS011;37894;53.172;6.598;2023-06-04T13:28:47;4.80;;;1.50;;
51852;SDS011;37894;53.172;6.598;2023-06-04T13:31:13;2.75;;;1.50;;
51852;SDS011;37894;53.172;6.598;2023-06-04T13:33:39;5.47;;;1.60;;
51852;SDS011;37894;53.172;6.598;2023-06-04T13:36:05;3.78;;;1.10;;
51852;SDS011;37894;53.172;6.598;2023-06-04T13:38:31;3.35;;;1.30;;
51852;SDS011;37894;53.172;6.598;2023-06-04T13:40:57;4.38;;;1.20;;
51852;SDS011;37894;53.172;6.598;2023-06-04T13:43:23;4.60;;;1.13;;
51852;SDS011;37894;53.172;6.598;2023-06-04T13:45:49;4.57;;;1.58;;
51852;SDS011;37894;53.172;6.598;2023-06-04T13:48:15;2.92;;;1.30;;
51852;SDS011;37894;53.172;6.598;2023-06-04T13:50:41;3.17;;;1.50;;
51852;SDS011;37894;53.172;6.598;2023-06-04T13:53:07;3.60;;;1.38;;
51852;SDS011;37894;53.172;6.598;2023-06-04T13:55:33;6.80;;;1.50;;
51852;SDS011;37894;53.172;6.598;2023-06-04T13:57:59;4.32;;;1.27;;
51852;SDS011;37894;53.172;6.598;2023-06-04T14:00:25;4.95;;;1.25;;
51852;SDS011;37894;53.172;6.598;2023-06-04T14:02:51;2.60;;;1.40;;
51852;SDS011;37894;53.172;6.598;2023-06-04T14:05:19;4.32;;;1.40;;
51852;SDS011;37894;53.172;6.598;2023-06-04T14:07:46;5.93;;;1.50;;
51852;SDS011;37894;53.172;6.598;2023-06-04T14:10:12;2.72;;;1.15;;
51852;SDS011;37894;53.172;6.598;2023-06-04T14:12:38;3.80;;;1.38;;
51852;SDS011;37894;53.172;6.598;2023-06-04T14:15:06;3.72;;;1.40;;
51852;SDS011;37894;53.172;6.598;2023-06-04T14:17:36;3.22;;;1.23;;
51852;SDS011;37894;53.172;6.598;2023-06-04T14:20:02;4.10;;;1.30;;
51852;SDS011;37894;53.172;6.598;2023-06-04T14:22:32;4.75;;;1.30;;
51852;SDS011;37894;53.172;6.598;2023-06-04T14:25:00;5.88;;;1.38;;
51852;SDS011;37894;53.172;6.598;2023-06-04T14:27:26;4.85;;;1.35;;
51852;SDS011;37894;53.172;6.598;2023-06-04T14:29:52;5.63;;;2.20;;
51852;SDS011;37894;53.172;6.598;2023-06-04T14:32:18;3.58;;;1.58;;
51852;SDS011;37894;53.172;6.598;2023-06-04T14:34:43;3.08;;;1.30;;
51852;SDS011;37894;53.172;6.598;2023-06-04T14:37:09;3.75;;;1.40;;
51852;SDS011;37894;53.172;6.598;2023-06-04T14:39:35;5.60;;;1.40;;
51852;SDS011;37894;53.172;6.598;2023-06-04T14:42:01;6.32;;;1.45;;
51852;SDS011;37894;53.172;6.598;2023-06-04T14:44:27;4.38;;;1.20;;
51852;SDS011;37894;53.172;6.598;2023-06-04T14:46:53;6.22;;;1.50;;
51852;SDS011;37894;53.172;6.598;2023-06-04T14:49:19;4.45;;;1.20;;
51852;SDS011;37894;53.172;6.598;2023-06-04T14:51:45;4.55;;;1.45;;
51852;SDS011;37894;53.172;6.598;2023-06-04T14:54:11;4.25;;;1.38;;